Hlavní strana
METAR-TAF:

METAR-TAF

Letiště :

Angoon, Aljaška, Spojené státy americké

zeměpisná šířka: 57-30N, zeměpisná délka: 134-35W, výška: 0 m

Aktuální stav počasí

Zpráva byla vytvořena před 13 minutami, v 05:56 UTC
vítr z různých směrů 6 kt
Teplota 2°C
Vlhkost vzduchu 93%
Tlak 984 hPa
Viditelnost: 16.1 km
Zataženo ve výšce 6000 ft

METAR: PAGN 130556Z AUTO VRB06KT 10SM OVC060 02/01 A2905 RMK AO2 SLP828 60006 T00170006 10017 20006 53001 FZRANO

Čas: 21:09 (06:09 UTC)


TAF: chybějící

Stav a předpovědi počasí z více než 4 000 letišť (zprávy METAR a TAF).

Červené a žluté tečky na mapě představují dostupné meteorologické stanice.

Když kurzor umístíte na tečku, zobrazí se název stanice.

Pak kliknutím zobrazíte stav a předpověď počasí.

Chcete-li změnit mapu, kliknutím na zelené tlačítko se znaménkem +mapu přiblížíte, kliknutím na zelené tlačítko se znaménkem – mapu oddálíte a kliknutím na zelené šipky přejdete na sousední mapy.


METAR-TAF: